Leon — D5BH4 — position and weather

sailwx.info

Track history (hours):
 
Tides and Currents Weather Stations Pressure Air Temp Water Temp Dewpoint Dewpoint Depression Visibility Wind Speed Wind Dir Waves Ship Positions

Leon

Last reported at 2014-Aug-16 17:33 UTC. Time now 2014-Aug-23 03:34 UTC.
Position N 54°22' E 000°23'.

Length 95 m; draft 5.5 m.

Type: Ship (hazmat cat C). MMSI: 636015519.

Date/timePositionNaut miles runAvg speedWind from/ knotsBaromVisibWave heightAir tempDewpointWater temp
2014-Aug-16 17:33N 54°22' E 000°23'1010.1
2014-Aug-16 16:33N 54°12' E 000°23'1110.8
2014-Aug-16 15:33N 54°02' E 000°23'1511.2
2014-Aug-16 14:14N 53°47' E 000°23'811.6
2014-Aug-16 13:33N 53°39' E 000°22'1010.2
2014-Aug-16 12:33N 53°33' E 000°08'1313.2
2014-Aug-16 11:33N 53°39' W 000°11'6 5.7
2014-Aug-16 10:32N 53°45' W 000°16'0 0.0
2014-Aug-16 04:31N 53°45' W 000°16'0 0.0
2014-Aug-16 03:28N 53°45' W 000°16'0 0.0
2014-Aug-16 02:31N 53°45' W 000°16'0 0.0
2014-Aug-16 01:19N 53°45' W 000°16'0 0.0
2014-Aug-16 00:31N 53°45' W 000°16'0 0.0
2014-Aug-15 23:16N 53°45' W 000°16'0 0.0
2014-Aug-15 22:04N 53°45' W 000°16'0 0.0
2014-Aug-15 20:04N 53°45' W 000°16'0 0.0
2014-Aug-15 16:25N 53°45' W 000°16'0 0.0
2014-Aug-15 13:25N 53°45' W 000°16'0 0.0
2014-Aug-15 09:19N 53°45' W 000°16'0 0.0
2014-Aug-15 08:32N 53°45' W 000°16'0 0.1
2014-Aug-15 07:33N 53°44' W 000°16'0 0.5
2014-Aug-15 06:34N 53°44' W 000°17'1010.1
2014-Aug-15 05:33N 53°37' W 000°05'1111.4
2014-Aug-15 04:33N 53°33' E 000°13'1110.7
2014-Aug-15 03:33N 53°41' E 000°23'10 9.6
2014-Aug-15 02:28N 53°52' E 000°22'6 6.0
2014-Aug-15 01:29N 53°58' E 000°23'2 1.6
2014-Aug-15 00:10N 53°60' E 000°23'610.0
2014-Aug-14 23:33N 54°06' E 000°23'1010.5
2014-Aug-14 22:33N 54°16' E 000°23'1111.0
2014-Aug-14 21:32N 54°28' E 000°22'1111.5
2014-Aug-14 20:33N 54°38' E 000°13'1211.7
2014-Aug-14 19:33N 54°47' E 000°01'10810.4
2014-Aug-14 09:11N 56°06' W 002°08'710.9
2014-Aug-14 08:33N 56°06' W 002°20'1211.7
2014-Aug-14 07:33N 56°07' W 002°41'1212.3
2014-Aug-14 06:33N 56°03' W 003°02'1111.2
2014-Aug-14 05:34N 56°01' W 003°22'1010.0
2014-Aug-14 04:33N 56°02' W 003°39'2 1.6
2014-Aug-14 03:31N 56°02' W 003°42'0 0.0
2014-Aug-14 02:31N 56°02' W 003°42'0 0.0
2014-Aug-14 01:31N 56°02' W 003°42'0 0.0
2014-Aug-14 00:31N 56°02' W 003°42'0 0.0
2014-Aug-13 23:31N 56°02' W 003°42'0 0.0
2014-Aug-13 22:31N 56°02' W 003°42'0 0.0
2014-Aug-13 21:31N 56°02' W 003°42'0 0.0
2014-Aug-13 20:31N 56°02' W 003°42'0 0.0
2014-Aug-13 19:31N 56°02' W 003°42'0 0.0
2014-Aug-13 18:31N 56°02' W 003°42'0 0.0
2014-Aug-13 17:31N 56°02' W 003°42'0 0.0
2014-Aug-13 16:33N 56°02' W 003°42'1 1.4
2014-Aug-13 15:33N 56°02' W 003°40'7 6.9
2014-Aug-13 14:33N 56°01' W 003°28'10 9.6
2014-Aug-13 13:33N 56°02' W 003°11'3 2.5
2014-Aug-13 12:33N 56°02' W 003°06'0 0.0
2014-Aug-13 11:33N 56°02' W 003°06'2 2.4
2014-Aug-13 10:33N 56°03' W 003°02'9 8.9
2014-Aug-13 09:33N 56°06' W 002°47'9 8.9
2014-Aug-13 08:33N 56°08' W 002°32'9 9.2
2014-Aug-13 07:33N 56°13' W 002°18'  
2014-Aug-08 00:24N 55°31' E 007°24'910.7
2014-Aug-07 23:33N 55°27' E 007°39'19 9.7
2014-Aug-07 21:33N 55°26' E 008°13'7 7.2
2014-Aug-07 20:33N 55°28' E 008°25'0 0.4
2014-Aug-07 19:13N 55°28' E 008°26'0 0.0
2014-Aug-07 18:28N 55°28' E 008°26'0 0.0
2014-Aug-07 17:13N 55°28' E 008°26'0 0.0
2014-Aug-07 16:16N 55°28' E 008°26'0 0.0
2014-Aug-07 15:31N 55°28' E 008°26'0 0.0
2014-Aug-07 14:16N 55°28' E 008°26'0 0.0
2014-Aug-07 13:31N 55°28' E 008°26'0 0.0
2014-Aug-07 12:04N 55°28' E 008°26'0 0.0
2014-Aug-07 11:31N 55°28' E 008°26'0 0.0
2014-Aug-07 10:31N 55°28' E 008°26'0 0.0
2014-Aug-07 09:22N 55°28' E 008°26'0 0.0
2014-Aug-07 07:25N 55°28' E 008°26'0 0.0
2014-Aug-07 05:22N 55°28' E 008°26'0 0.0
2014-Aug-07 04:22N 55°28' E 008°26'1 1.4
2014-Aug-07 03:33N 55°29' E 008°24'10 9.8
2014-Aug-07 02:33N 55°24' E 008°09'20 9.8
2014-Aug-07 00:29N 55°29' E 007°34'21 8.8
2014-Aug-06 22:08N 55°42' E 007°06'7 9.7
2014-Aug-06 21:27N 55°49' E 007°05'  
Track history (hours):
 
Tides and Currents Weather Stations Pressure Air Temp Water Temp Dewpoint Dewpoint Depression Visibility Wind Speed Wind Dir Waves Ship Positions

Leon

Last reported at 2014-Aug-16 17:33 UTC. Time now 2014-Aug-23 03:34 UTC.
Position N 54°22' E 000°23'.

Length 95 m; draft 5.5 m.

Type: Ship (hazmat cat C). MMSI: 636015519.

Date/timePositionNaut miles runAvg speedWind from/ knotsBaromVisibWave heightAir tempDewpointWater temp
2014-Aug-16 17:33N 54°22' E 000°23'1010.1
2014-Aug-16 16:33N 54°12' E 000°23'1110.8
2014-Aug-16 15:33N 54°02' E 000°23'1511.2
2014-Aug-16 14:14N 53°47' E 000°23'811.6
2014-Aug-16 13:33N 53°39' E 000°22'1010.2
2014-Aug-16 12:33N 53°33' E 000°08'1313.2
2014-Aug-16 11:33N 53°39' W 000°11'6 5.7
2014-Aug-16 10:32N 53°45' W 000°16'0 0.0
2014-Aug-16 04:31N 53°45' W 000°16'0 0.0
2014-Aug-16 03:28N 53°45' W 000°16'0 0.0
2014-Aug-16 02:31N 53°45' W 000°16'0 0.0
2014-Aug-16 01:19N 53°45' W 000°16'0 0.0
2014-Aug-16 00:31N 53°45' W 000°16'0 0.0
2014-Aug-15 23:16N 53°45' W 000°16'0 0.0
2014-Aug-15 22:04N 53°45' W 000°16'0 0.0
2014-Aug-15 20:04N 53°45' W 000°16'0 0.0
2014-Aug-15 16:25N 53°45' W 000°16'0 0.0
2014-Aug-15 13:25N 53°45' W 000°16'0 0.0
2014-Aug-15 09:19N 53°45' W 000°16'0 0.0
2014-Aug-15 08:32N 53°45' W 000°16'0 0.1
2014-Aug-15 07:33N 53°44' W 000°16'0 0.5
2014-Aug-15 06:34N 53°44' W 000°17'1010.1
2014-Aug-15 05:33N 53°37' W 000°05'1111.4
2014-Aug-15 04:33N 53°33' E 000°13'1110.7
2014-Aug-15 03:33N 53°41' E 000°23'10 9.6
2014-Aug-15 02:28N 53°52' E 000°22'6 6.0
2014-Aug-15 01:29N 53°58' E 000°23'2 1.6
2014-Aug-15 00:10N 53°60' E 000°23'610.0
2014-Aug-14 23:33N 54°06' E 000°23'1010.5
2014-Aug-14 22:33N 54°16' E 000°23'1111.0
2014-Aug-14 21:32N 54°28' E 000°22'1111.5
2014-Aug-14 20:33N 54°38' E 000°13'1211.7
2014-Aug-14 19:33N 54°47' E 000°01'10810.4
2014-Aug-14 09:11N 56°06' W 002°08'710.9
2014-Aug-14 08:33N 56°06' W 002°20'1211.7
2014-Aug-14 07:33N 56°07' W 002°41'1212.3
2014-Aug-14 06:33N 56°03' W 003°02'1111.2
2014-Aug-14 05:34N 56°01' W 003°22'1010.0
2014-Aug-14 04:33N 56°02' W 003°39'2 1.6
2014-Aug-14 03:31N 56°02' W 003°42'0 0.0
2014-Aug-14 02:31N 56°02' W 003°42'0 0.0
2014-Aug-14 01:31N 56°02' W 003°42'0 0.0
2014-Aug-14 00:31N 56°02' W 003°42'0 0.0
2014-Aug-13 23:31N 56°02' W 003°42'0 0.0
2014-Aug-13 22:31N 56°02' W 003°42'0 0.0
2014-Aug-13 21:31N 56°02' W 003°42'0 0.0
2014-Aug-13 20:31N 56°02' W 003°42'0 0.0
2014-Aug-13 19:31N 56°02' W 003°42'0 0.0
2014-Aug-13 18:31N 56°02' W 003°42'0 0.0
2014-Aug-13 17:31N 56°02' W 003°42'0 0.0
2014-Aug-13 16:33N 56°02' W 003°42'1 1.4
2014-Aug-13 15:33N 56°02' W 003°40'7 6.9
2014-Aug-13 14:33N 56°01' W 003°28'10 9.6
2014-Aug-13 13:33N 56°02' W 003°11'3 2.5
2014-Aug-13 12:33N 56°02' W 003°06'0 0.0
2014-Aug-13 11:33N 56°02' W 003°06'2 2.4
2014-Aug-13 10:33N 56°03' W 003°02'9 8.9
2014-Aug-13 09:33N 56°06' W 002°47'9 8.9
2014-Aug-13 08:33N 56°08' W 002°32'9 9.2
2014-Aug-13 07:33N 56°13' W 002°18'  
2014-Aug-08 00:24N 55°31' E 007°24'910.7
2014-Aug-07 23:33N 55°27' E 007°39'19 9.7
2014-Aug-07 21:33N 55°26' E 008°13'7 7.2
2014-Aug-07 20:33N 55°28' E 008°25'0 0.4
2014-Aug-07 19:13N 55°28' E 008°26'0 0.0
2014-Aug-07 18:28N 55°28' E 008°26'0 0.0
2014-Aug-07 17:13N 55°28' E 008°26'0 0.0
2014-Aug-07 16:16N 55°28' E 008°26'0 0.0
2014-Aug-07 15:31N 55°28' E 008°26'0 0.0
2014-Aug-07 14:16N 55°28' E 008°26'0 0.0
2014-Aug-07 13:31N 55°28' E 008°26'0 0.0
2014-Aug-07 12:04N 55°28' E 008°26'0 0.0
2014-Aug-07 11:31N 55°28' E 008°26'0 0.0
2014-Aug-07 10:31N 55°28' E 008°26'0 0.0
2014-Aug-07 09:22N 55°28' E 008°26'0 0.0
2014-Aug-07 07:25N 55°28' E 008°26'0 0.0
2014-Aug-07 05:22N 55°28' E 008°26'0 0.0
2014-Aug-07 04:22N 55°28' E 008°26'1 1.4
2014-Aug-07 03:33N 55°29' E 008°24'10 9.8
2014-Aug-07 02:33N 55°24' E 008°09'20 9.8
2014-Aug-07 00:29N 55°29' E 007°34'21 8.8
2014-Aug-06 22:08N 55°42' E 007°06'7 9.7
2014-Aug-06 21:27N 55°49' E 007°05'  

Dump ship's entire track history